Time;durP1;ratioP1;P1;durP2;ratioP2;P2;SDS_P1;SDS_P2;PMS_P1;PMS_P2;Temp;Humidity;BMP_temperature;BMP_pressure;BME280_temperature;BME280_humidity;BME280_pressure;Samples;Min_cycle;Max_cycle;Signal;HPM_P1;HPM_P2
2022/04/08 00:01:24;;;;;;;6.35;1.00;;;4.90;99.90;;;;;;5023155;28;20109;-82
2022/04/08 00:03:50;;;;;;;5.43;1.25;;;5.00;99.90;;;;;;5023300;28;20063;-82
2022/04/08 00:06:15;;;;;;;5.15;1.00;;;5.90;99.90;;;;;;5022955;28;20140;-82
2022/04/08 00:08:41;;;;;;;5.80;0.90;;;4.90;99.90;;;;;;5040215;28;20121;-82
2022/04/08 00:11:07;;;;;;;4.40;0.77;;;5.30;99.90;;;;;;5026272;28;20474;-82
2022/04/08 00:13:32;;;;;;;5.82;0.98;;;4.80;99.90;;;;;;5025494;28;20444;-83
2022/04/08 00:15:58;;;;;;;4.20;0.70;;;4.80;99.90;;;;;;5024578;28;20037;-82
2022/04/08 00:18:24;;;;;;;4.03;0.70;;;4.20;99.90;;;;;;5024225;28;20045;-82
2022/04/08 00:20:50;;;;;;;8.25;1.05;;;5.10;99.90;;;;;;5039876;28;20060;-82
2022/04/08 00:23:16;;;;;;;5.95;1.00;;;4.90;99.90;;;;;;5024228;28;20041;-82
2022/04/08 00:25:41;;;;;;;9.35;1.30;;;4.80;99.90;;;;;;5024732;28;20184;-82
2022/04/08 00:28:07;;;;;;;6.75;1.30;;;5.90;99.90;;;;;;5025254;28;20492;-82
2022/04/08 00:30:33;;;;;;;10.57;1.58;;;4.50;99.90;;;;;;5023954;28;20045;-82
2022/04/08 00:32:59;;;;;;;13.60;1.73;;;4.30;99.90;;;;;;5024176;28;20042;-82
2022/04/08 00:35:25;;;;;;;6.82;1.60;;;4.50;99.90;;;;;;5022626;28;20049;-82
2022/04/08 00:37:51;;;;;;;9.77;1.42;;;4.50;99.90;;;;;;5022932;28;20042;-82
2022/04/08 00:40:17;;;;;;;9.38;1.33;;;5.40;99.90;;;;;;5038724;28;20048;-82
2022/04/08 00:42:43;;;;;;;10.70;1.98;;;4.20;99.90;;;;;;5038833;28;20059;-82
2022/04/08 00:45:10;;;;;;;6.05;1.30;;;4.00;99.90;;;;;;5023610;28;20133;-82
2022/04/08 00:47:37;;;;;;;9.82;1.40;;;5.30;99.90;;;;;;5056264;28;20056;-83
2022/04/08 00:50:04;;;;;;;5.50;1.40;;;4.10;99.90;;;;;;5039501;28;20072;-82
2022/04/08 00:52:31;;;;;;;10.25;1.40;;;4.00;99.90;;;;;;5023336;28;20087;-83
2022/04/08 00:54:57;;;;;;;11.20;1.70;;;5.10;99.90;;;;;;5023629;28;20052;-82
2022/04/08 00:57:23;;;;;;;5.95;1.33;;;4.00;99.90;;;;;;5039716;28;20037;-82
2022/04/08 00:59:50;;;;;;;12.80;1.42;;;4.00;99.90;;;;;;5041080;28;20555;-82
2022/04/08 01:02:16;;;;;;;9.50;1.70;;;4.20;99.90;;;;;;5022292;28;20156;-82
2022/04/08 01:04:42;;;;;;;9.15;1.42;;;4.00;99.90;;;;;;5022340;28;20080;-82
2022/04/08 01:07:07;;;;;;;7.55;1.20;;;4.50;99.90;;;;;;5038095;28;20044;-82
2022/04/08 01:09:34;;;;;;;8.05;1.20;;;4.00;99.90;;;;;;5074389;22;20062;-82
2022/04/08 01:12:00;;;;;;;11.10;2.00;;;4.00;99.90;;;;;;5118616;28;20039;-82
2022/04/08 01:14:25;;;;;;;8.05;1.30;;;4.70;99.90;;;;;;5101017;28;20124;-82
2022/04/08 01:16:51;;;;;;;8.45;1.50;;;4.70;99.90;;;;;;5106472;22;20408;-82
2022/04/08 01:19:17;;;;;;;6.57;1.23;;;4.00;99.90;;;;;;5098801;28;20541;-82
2022/04/08 01:21:43;;;;;;;8.82;1.88;;;3.90;99.90;;;;;;5081198;28;20051;-82
2022/04/08 01:24:13;;;;;;;6.18;1.30;;;4.50;99.90;;;;;;5081433;28;20050;-82
2022/04/08 01:26:42;;;;;;;10.45;1.33;;;5.20;99.90;;;;;;5093524;22;20055;-82
2022/04/08 01:29:07;;;;;;;11.88;1.88;;;3.90;99.90;;;;;;5082076;28;20079;-82
2022/04/08 01:31:34;;;;;;;11.93;1.33;;;3.90;99.90;;;;;;5084484;28;20044;-82
2022/04/08 01:33:59;;;;;;;7.95;1.50;;;3.70;99.90;;;;;;5114100;22;20055;-82
2022/04/08 01:36:27;;;;;;;7.47;1.40;;;3.80;99.90;;;;;;5069365;28;20051;-82
2022/04/08 01:38:53;;;;;;;12.32;1.65;;;4.20;99.90;;;;;;5098950;22;20048;-82
2022/04/08 01:41:20;;;;;;;9.05;1.48;;;3.80;99.90;;;;;;5084896;28;20529;-82
2022/04/08 01:43:46;;;;;;;12.52;1.67;;;4.60;99.90;;;;;;5094544;22;20051;-82
2022/04/08 01:46:12;;;;;;;13.52;1.85;;;3.70;99.90;;;;;;5088711;28;20039;-82
2022/04/08 01:48:37;;;;;;;10.35;1.63;;;4.90;99.90;;;;;;5087744;28;20047;-82
2022/04/08 01:51:04;;;;;;;7.65;1.52;;;3.70;99.90;;;;;;5105227;28;20043;-82
2022/04/08 01:53:29;;;;;;;9.50;1.65;;;3.70;99.90;;;;;;5088111;28;20069;-82
2022/04/08 01:55:55;;;;;;;9.25;1.50;;;3.80;99.90;;;;;;5087716;28;20047;-82
2022/04/08 01:58:21;;;;;;;6.65;1.73;;;3.80;99.90;;;;;;5088817;22;20042;-82
2022/04/08 02:00:46;;;;;;;11.07;1.63;;;3.90;99.90;;;;;;5076891;22;20142;-82
2022/04/08 02:03:12;;;;;;;11.18;1.80;;;4.20;99.90;;;;;;5047943;28;20045;-82
2022/04/08 02:05:38;;;;;;;9.65;1.65;;;3.80;99.90;;;;;;5067417;22;20048;-82
2022/04/08 02:08:04;;;;;;;10.85;1.55;;;3.80;99.90;;;;;;5077529;22;20134;-82
2022/04/08 02:10:29;;;;;;;12.90;1.75;;;3.90;99.90;;;;;;5087365;28;20063;-82
2022/04/08 02:12:55;;;;;;;10.48;2.03;;;3.90;99.90;;;;;;5097693;22;20053;-82
2022/04/08 02:15:41;;;;;;;13.15;1.85;;;5.10;99.90;;;;;;5080179;28;20047;-82
2022/04/08 02:18:07;;;;;;;10.90;2.03;;;4.10;99.90;;;;;;5064864;28;20400;-82
2022/04/08 02:20:33;;;;;;;14.27;2.10;;;4.20;99.90;;;;;;5078216;22;20078;-82
2022/04/08 02:23:00;;;;;;;10.88;1.60;;;4.20;99.90;;;;;;5069217;28;20135;-82
2022/04/08 02:25:27;;;;;;;9.77;1.58;;;4.20;99.90;;;;;;5096106;28;20050;-82
2022/04/08 02:27:53;;;;;;;10.15;1.92;;;4.20;99.90;;;;;;5079581;28;20063;-82
2022/04/08 02:30:19;;;;;;;9.27;1.70;;;4.10;99.90;;;;;;5078858;28;20098;-82
2022/04/08 02:32:46;;;;;;;15.82;2.08;;;4.20;99.90;;;;;;5072493;28;20047;-82
2022/04/08 02:35:12;;;;;;;10.27;1.70;;;3.70;99.90;;;;;;5072216;22;20599;-82
2022/04/08 02:37:38;;;;;;;10.43;1.80;;;5.20;99.90;;;;;;5064992;28;20076;-82
2022/04/08 02:40:05;;;;;;;13.07;2.00;;;4.00;99.90;;;;;;5080711;28;20102;-82
2022/04/08 02:42:31;;;;;;;12.48;1.95;;;4.20;99.90;;;;;;5063701;28;20047;-82
2022/04/08 02:45:00;;;;;;;11.93;1.83;;;4.40;99.90;;;;;;5064377;28;20400;-82
2022/04/08 02:47:26;;;;;;;13.10;2.35;;;4.00;99.90;;;;;;5064000;28;20076;-82
2022/04/08 02:49:51;;;;;;;13.20;1.65;;;4.30;99.90;;;;;;5063954;28;20098;-82
2022/04/08 02:52:17;;;;;;;14.40;2.15;;;5.60;99.90;;;;;;5064001;28;20036;-82
2022/04/08 02:54:42;;;;;;;9.88;1.52;;;5.10;99.90;;;;;;5080645;28;20488;-82
2022/04/08 02:57:08;;;;;;;10.75;1.70;;;5.50;99.90;;;;;;5082258;28;20048;-82
2022/04/08 02:59:34;;;;;;;9.55;1.60;;;3.80;99.90;;;;;;5081060;28;20082;-82
2022/04/08 03:02:00;;;;;;;8.55;1.83;;;4.70;99.90;;;;;;5080614;22;20048;-82
2022/04/08 03:04:26;;;;;;;7.57;1.95;;;4.40;99.90;;;;;;5071065;22;20059;-82
2022/04/08 03:06:53;;;;;;;10.95;1.83;;;5.20;99.90;;;;;;5063049;28;20089;-82
2022/04/08 03:09:20;;;;;;;10.30;1.75;;;4.30;99.90;;;;;;5064564;28;20104;-82
2022/04/08 03:11:45;;;;;;;7.45;1.85;;;3.80;99.90;;;;;;5064034;28;20072;-82
2022/04/08 03:14:11;;;;;;;8.32;1.40;;;4.50;99.90;;;;;;5077112;22;20056;-81
2022/04/08 03:16:37;;;;;;;9.18;2.00;;;4.20;99.90;;;;;;5086463;28;20058;-82
2022/04/08 03:19:02;;;;;;;10.90;1.58;;;5.30;99.90;;;;;;5086647;28;20052;-82
2022/04/08 03:21:30;;;;;;;6.60;1.55;;;5.10;99.90;;;;;;5087007;28;20471;-82
2022/04/08 03:23:56;;;;;;;9.02;1.80;;;4.00;99.90;;;;;;5086615;28;20050;-82
2022/04/08 03:26:23;;;;;;;8.15;1.63;;;4.00;99.90;;;;;;5086018;28;20097;-82
2022/04/08 03:28:49;;;;;;;7.13;1.52;;;4.20;99.90;;;;;;5090036;22;20528;-82
2022/04/08 03:31:14;;;;;;;7.07;1.70;;;5.70;99.90;;;;;;5062774;28;20043;-82
2022/04/08 03:33:41;;;;;;;9.38;2.05;;;5.40;99.90;;;;;;5106050;22;20051;-82
2022/04/08 03:36:07;;;;;;;12.55;1.80;;;4.10;99.90;;;;;;5082532;22;20059;-82
2022/04/08 03:38:33;;;;;;;9.13;1.80;;;5.40;99.90;;;;;;5043013;28;20045;-82
2022/04/08 03:40:58;;;;;;;8.55;1.55;;;4.10;99.90;;;;;;5042468;28;20079;-82
2022/04/08 03:43:24;;;;;;;8.32;1.90;;;3.70;99.90;;;;;;5079831;22;20048;-82
2022/04/08 03:45:50;;;;;;;7.68;1.77;;;4.20;99.90;;;;;;5073352;22;20250;-82
2022/04/08 03:48:16;;;;;;;6.22;1.23;;;4.30;99.90;;;;;;5046198;28;20420;-82
2022/04/08 03:50:41;;;;;;;6.93;1.25;;;4.40;99.90;;;;;;5071502;22;20053;-82
2022/04/08 03:53:10;;;;;;;9.63;1.50;;;4.30;99.90;;;;;;5075531;22;20390;-82
2022/04/08 03:55:36;;;;;;;11.73;1.70;;;4.30;99.90;;;;;;5090073;28;20055;-82
2022/04/08 03:58:02;;;;;;;11.10;2.08;;;4.20;99.90;;;;;;5099925;22;20059;-82
2022/04/08 04:00:27;;;;;;;4.20;1.10;;;4.10;99.90;;;;;;5080184;22;20053;-81
2022/04/08 04:02:53;;;;;;;7.93;1.40;;;4.00;99.90;;;;;;5074084;22;20519;-81
2022/04/08 04:05:19;;;;;;;5.35;1.38;;;3.90;99.90;;;;;;5032286;22;1116360;-82
2022/04/08 04:07:45;;;;;;;5.13;1.40;;;3.80;99.90;;;;;;5087783;22;20448;-82
2022/04/08 04:10:11;;;;;;;4.10;1.05;;;3.70;99.90;;;;;;5087161;22;20407;-82
2022/04/08 04:12:38;;;;;;;7.97;1.63;;;3.60;99.90;;;;;;5087172;22;20141;-82
2022/04/08 04:15:05;;;;;;;8.35;1.70;;;4.40;99.90;;;;;;5085878;22;20717;-82
2022/04/08 04:17:30;;;;;;;6.82;1.45;;;3.40;99.90;;;;;;5062216;28;20052;-82
2022/04/08 04:19:56;;;;;;;4.75;1.60;;;4.50;99.90;;;;;;5085935;22;20143;-81
2022/04/08 04:22:22;;;;;;;8.43;1.80;;;3.30;99.90;;;;;;5083589;22;20052;-81
2022/04/08 04:24:47;;;;;;;9.60;1.77;;;4.60;99.90;;;;;;5093009;22;20052;-82
2022/04/08 04:27:13;;;;;;;11.38;1.55;;;4.50;99.90;;;;;;5084360;22;20048;-82
2022/04/08 04:29:42;;;;;;;6.70;1.67;;;3.30;99.90;;;;;;5079154;22;20059;-82
2022/04/08 04:32:08;;;;;;;8.25;1.83;;;3.30;99.90;;;;;;5083935;22;20051;-81
2022/04/08 04:34:37;;;;;;;6.95;1.60;;;3.30;99.90;;;;;;5085011;22;20177;-82
2022/04/08 04:37:04;;;;;;;6.10;1.45;;;3.30;99.90;;;;;;5088542;22;20490;-82
2022/04/08 04:39:30;;;;;;;5.30;1.50;;;3.30;99.90;;;;;;5086521;22;20067;-82
2022/04/08 04:41:55;;;;;;;6.80;1.60;;;3.60;99.90;;;;;;5080234;22;20056;-82
2022/04/08 04:44:21;;;;;;;6.57;1.80;;;3.30;99.90;;;;;;5074903;22;20048;-82
2022/04/08 04:46:47;;;;;;;6.22;1.85;;;3.90;99.90;;;;;;5093177;22;20052;-81
2022/04/08 04:49:13;;;;;;;3.72;1.40;;;4.50;99.90;;;;;;5063835;28;20101;-82
2022/04/08 04:51:39;;;;;;;5.15;1.40;;;3.50;99.90;;;;;;5064598;28;20128;-82
2022/04/08 04:54:05;;;;;;;4.07;1.23;;;3.80;99.90;;;;;;5063943;28;20063;-82
2022/04/08 04:56:30;;;;;;;5.38;1.50;;;3.40;99.90;;;;;;5063980;28;20036;-82
2022/04/08 04:58:56;;;;;;;6.38;1.50;;;2.90;99.90;;;;;;5081369;28;20542;-82
2022/04/08 05:01:21;;;;;;;3.55;1.30;;;3.10;99.90;;;;;;5082774;22;20522;-82
2022/04/08 05:03:47;;;;;;;4.28;1.40;;;4.30;99.90;;;;;;5097567;28;20040;-81
2022/04/08 05:06:13;;;;;;;2.60;1.20;;;2.70;99.90;;;;;;5100024;28;20126;-82
2022/04/08 05:08:38;;;;;;;3.58;1.40;;;2.80;99.90;;;;;;5126415;22;20047;-82
2022/04/08 05:11:04;;;;;;;4.90;1.92;;;3.80;99.90;;;;;;5084908;28;20086;-81
2022/04/08 05:13:32;;;;;;;4.28;1.52;;;1.80;99.90;;;;;;5084869;28;20126;-82
2022/04/08 05:15:58;;;;;;;2.65;1.58;;;3.80;99.90;;;;;;5083885;28;20032;-82
2022/04/08 05:18:24;;;;;;;4.90;1.75;;;3.90;99.90;;;;;;5084126;28;20134;-82
2022/04/08 05:20:52;;;;;;;2.90;1.65;;;2.70;99.90;;;;;;5084515;28;20040;-82
2022/04/08 05:23:18;;;;;;;6.60;1.92;;;2.80;99.90;;;;;;5102771;28;20047;-82
2022/04/08 05:25:44;;;;;;;5.03;1.90;;;2.90;99.90;;;;;;5084433;28;20114;-81
2022/04/08 05:28:12;;;;;;;5.38;2.20;;;4.10;99.90;;;;;;5101907;28;20077;-82
2022/04/08 05:30:38;;;;;;;3.15;1.70;;;2.80;99.90;;;;;;5089731;22;20056;-82
2022/04/08 05:33:04;;;;;;;5.28;1.83;;;3.10;99.90;;;;;;5101517;28;20044;-82
2022/04/08 05:35:29;;;;;;;4.53;1.95;;;3.20;99.90;;;;;;5084238;28;20048;-82
2022/04/08 05:37:55;;;;;;;8.05;2.08;;;3.30;99.90;;;;;;5083857;28;20048;-82
2022/04/08 05:40:24;;;;;;;6.82;2.22;;;3.00;99.90;;;;;;5084085;28;20040;-82
2022/04/08 05:42:50;;;;;;;5.13;1.80;;;3.90;99.90;;;;;;5083895;28;20032;-82
2022/04/08 05:45:18;;;;;;;5.07;2.15;;;3.20;99.90;;;;;;5100531;28;20138;-82
2022/04/08 05:47:50;;;;;;;4.10;2.30;;;4.60;99.90;;;;;;5100957;28;20122;-82
2022/04/08 05:50:17;;;;;;;4.00;1.75;;;4.80;99.90;;;;;;5092432;22;20165;-82
2022/04/08 05:52:44;;;;;;;2.65;1.35;;;3.40;99.90;;;;;;5063472;28;20063;-82
2022/04/08 05:55:10;;;;;;;4.68;1.50;;;3.80;99.90;;;;;;5064241;28;20504;-82
2022/04/08 05:57:40;;;;;;;5.07;1.40;;;3.50;99.90;;;;;;5063382;28;20044;-82
2022/04/08 06:00:10;;;;;;;3.88;1.52;;;3.20;99.90;;;;;;5073768;22;20044;-82
2022/04/08 06:05:01;;;;;;;3.70;1.40;;;3.40;99.90;;;;;;5107550;22;20452;-81
2022/04/08 06:07:26;;;;;;;2.55;1.38;;;3.30;99.90;;;;;;5082402;28;20047;-82
2022/04/08 06:09:53;;;;;;;3.95;1.60;;;3.50;99.90;;;;;;5083357;28;20044;-82
2022/04/08 06:12:18;;;;;;;4.90;1.80;;;3.40;99.90;;;;;;5066498;28;20434;-82
2022/04/08 06:14:44;;;;;;;4.95;1.52;;;3.30;99.90;;;;;;5068797;28;20131;-82
2022/04/08 06:17:10;;;;;;;3.67;1.48;;;4.40;99.90;;;;;;5106965;22;20502;-82
2022/04/08 06:19:35;;;;;;;3.20;1.42;;;3.60;99.90;;;;;;5088330;28;20107;-82
2022/04/08 06:22:01;;;;;;;2.95;1.48;;;4.50;99.90;;;;;;5088054;28;20039;-82
2022/04/08 06:24:26;;;;;;;5.35;1.60;;;3.60;99.90;;;;;;5107010;28;20126;-83
2022/04/08 06:26:52;;;;;;;3.65;1.65;;;3.60;99.90;;;;;;5105582;28;20105;-82
2022/04/08 06:29:18;;;;;;;5.38;1.92;;;3.60;99.90;;;;;;5122553;28;20048;-81
2022/04/08 06:31:44;;;;;;;5.13;1.58;;;3.60;99.90;;;;;;5104572;28;20047;-82
2022/04/08 06:34:09;;;;;;;5.28;1.80;;;3.60;99.90;;;;;;5104064;28;20036;-82
2022/04/08 06:36:35;;;;;;;3.38;1.90;;;3.50;99.90;;;;;;5104931;28;20058;-82
2022/04/08 06:39:00;;;;;;;6.15;2.22;;;3.50;99.90;;;;;;5104433;28;20048;-82
2022/04/08 06:41:26;;;;;;;5.10;1.75;;;3.60;99.90;;;;;;5123527;28;20043;-82
2022/04/08 06:43:52;;;;;;;7.72;1.90;;;4.50;99.90;;;;;;5105161;28;20113;-82
2022/04/08 06:46:17;;;;;;;6.45;1.80;;;3.80;99.90;;;;;;5087964;28;20092;-82
2022/04/08 06:48:43;;;;;;;6.50;2.20;;;4.00;99.90;;;;;;5124270;28;20077;-82
2022/04/08 06:51:09;;;;;;;9.88;2.60;;;4.00;99.90;;;;;;5105073;28;20040;-82
2022/04/08 06:53:34;;;;;;;12.30;2.90;;;4.10;99.90;;;;;;5087282;28;20051;-82
2022/04/08 06:56:01;;;;;;;10.18;2.95;;;4.20;99.90;;;;;;5122466;28;20032;-82
2022/04/08 06:58:28;;;;;;;8.05;2.92;;;4.40;99.90;;;;;;5104768;28;20047;-82
2022/04/08 07:00:54;;;;;;;8.07;2.85;;;4.70;99.90;;;;;;5104080;28;20047;-82
2022/04/08 07:03:20;;;;;;;7.60;2.65;;;5.00;99.90;;;;;;5122760;28;20040;-82
2022/04/08 07:05:46;;;;;;;13.27;3.05;;;5.30;99.90;;;;;;5123454;28;20066;-82
2022/04/08 07:08:12;;;;;;;11.18;2.95;;;5.50;99.90;;;;;;5122877;28;20040;-81
2022/04/08 07:10:40;;;;;;;10.27;2.80;;;5.60;99.90;;;;;;5103787;28;20035;-82
2022/04/08 07:13:07;;;;;;;8.85;3.20;;;5.90;99.90;;;;;;5104525;28;20050;-82
2022/04/08 07:15:33;;;;;;;8.65;2.33;;;5.40;99.90;;;;;;5122213;28;20044;-82
2022/04/08 07:17:59;;;;;;;6.97;2.40;;;5.00;99.90;;;;;;5086675;28;20090;-82
2022/04/08 07:20:25;;;;;;;9.73;2.60;;;4.90;99.90;;;;;;5086844;28;20043;-82
2022/04/08 07:22:51;;;;;;;9.63;2.63;;;4.80;99.90;;;;;;5104161;28;20040;-83
2022/04/08 07:25:18;;;;;;;8.77;2.50;;;4.60;99.90;;;;;;5103280;28;20487;-83
2022/04/08 07:27:52;;;;;;;12.27;3.42;;;4.60;99.90;;;;;;5122360;28;20050;-83
2022/04/08 07:30:19;;;;;;;12.88;2.83;;;4.70;99.90;;;;;;5103591;28;20096;-82
2022/04/08 07:32:48;;;;;;;9.77;2.88;;;4.80;99.90;;;;;;5122872;28;20382;-83
2022/04/08 07:35:13;;;;;;;8.80;2.58;;;5.90;99.90;;;;;;5122284;28;20058;-82
2022/04/08 07:37:42;;;;;;;11.43;2.38;;;5.00;99.90;;;;;;5102634;28;20487;-82
2022/04/08 07:40:10;;;;;;;8.15;2.30;;;5.70;99.90;;;;;;5103089;28;20047;-82
2022/04/08 07:42:36;;;;;;;11.27;2.38;;;5.20;99.90;;;;;;5103650;28;20046;-82
2022/04/08 07:45:02;;;;;;;6.78;2.05;;;5.30;99.90;;;;;;5102293;28;20039;-82
2022/04/08 07:47:28;;;;;;;8.05;2.22;;;5.40;99.90;;;;;;5103342;28;20054;-82
2022/04/08 07:50:05;;;;;;;5.75;2.03;;;5.50;99.90;;;;;;5122438;28;20036;-82
2022/04/08 07:52:31;;;;;;;10.68;3.15;;;5.70;99.90;;;;;;5104028;28;20047;-82
2022/04/08 07:54:57;;;;;;;9.88;2.70;;;5.80;99.90;;;;;;5103416;28;20039;-83
2022/04/08 07:57:23;;;;;;;5.20;1.95;;;5.90;99.90;;;;;;5102547;28;20130;-82
2022/04/08 07:59:49;;;;;;;7.90;2.35;;;5.90;99.90;;;;;;5102575;28;20063;-83
2022/04/08 08:02:15;;;;;;;6.10;2.33;;;5.90;99.90;;;;;;5103318;28;20039;-83
2022/04/08 08:04:40;;;;;;;7.18;2.42;;;5.90;99.90;;;;;;5102309;28;20039;-82
2022/04/08 08:07:06;;;;;;;6.55;2.20;;;6.00;99.90;;;;;;5085987;28;20088;-83
2022/04/08 08:09:33;;;;;;;7.07;1.90;;;6.00;99.90;;;;;;5102499;28;20219;-83
2022/04/08 08:12:00;;;;;;;6.82;1.85;;;6.30;99.90;;;;;;5102811;28;20046;-83
2022/04/08 08:14:25;;;;;;;9.48;2.25;;;6.30;99.90;;;;;;5102690;28;20039;-83
2022/04/08 08:16:51;;;;;;;7.57;2.05;;;6.40;99.90;;;;;;5102777;28;20120;-83
2022/04/08 08:19:17;;;;;;;7.00;2.03;;;6.20;99.90;;;;;;5120885;28;20074;-82
2022/04/08 08:21:43;;;;;;;7.90;2.60;;;6.20;99.90;;;;;;5120905;28;20048;-83
2022/04/08 08:24:08;;;;;;;7.40;2.15;;;6.20;99.90;;;;;;5101810;28;20478;-82
2022/04/08 08:26:34;;;;;;;9.70;2.40;;;6.30;99.90;;;;;;5120606;28;20040;-83
2022/04/08 08:29:00;;;;;;;7.00;2.20;;;6.50;99.90;;;;;;5130935;28;20036;-83
2022/04/08 08:31:26;;;;;;;8.38;2.35;;;6.60;99.90;;;;;;5113076;28;20051;-82
2022/04/08 08:33:52;;;;;;;7.38;2.60;;;6.70;99.90;;;;;;5115265;28;20132;-82
2022/04/08 08:36:17;;;;;;;8.32;2.40;;;6.70;99.90;;;;;;5112257;28;20051;-82
2022/04/08 08:38:43;;;;;;;10.63;2.65;;;6.80;99.90;;;;;;5107213;28;20068;-83
2022/04/08 08:41:10;;;;;;;10.60;2.80;;;6.90;99.90;;;;;;5091173;28;20039;-83
2022/04/08 08:43:36;;;;;;;8.27;2.67;;;6.90;99.90;;;;;;5109624;28;20039;-83
2022/04/08 08:46:07;;;;;;;7.70;2.60;;;7.00;99.90;;;;;;5108463;28;20052;-83
2022/04/08 08:48:34;;;;;;;8.10;2.30;;;7.00;99.90;;;;;;5108808;28;20047;-83
2022/04/08 08:51:05;;;;;;;9.63;2.58;;;7.10;99.90;;;;;;5127481;28;20040;-83
2022/04/08 08:53:32;;;;;;;6.20;2.30;;;7.00;99.90;;;;;;5097386;28;20063;-82
2022/04/08 08:55:58;;;;;;;7.40;2.05;;;7.20;99.90;;;;;;5129290;28;20535;-83
2022/04/08 08:58:24;;;;;;;9.05;2.38;;;7.30;99.90;;;;;;5107791;28;20050;-83
2022/04/08 09:00:49;;;;;;;12.63;3.28;;;7.20;99.90;;;;;;5107711;28;20052;-83
2022/04/08 09:03:15;;;;;;;10.25;2.65;;;7.80;99.90;;;;;;5126945;28;20035;-82
2022/04/08 09:05:45;;;;;;;10.00;3.10;;;7.20;99.90;;;;;;5125692;28;20069;-83
2022/04/08 09:08:13;;;;;;;15.15;5.15;;;7.30;99.90;;;;;;5091228;28;20119;-82
2022/04/08 09:10:40;;;;;;;12.40;3.42;;;7.50;99.90;;;;;;5125974;28;20462;-83
2022/04/08 09:13:10;;;;;;;14.20;2.92;;;7.70;99.90;;;;;;5107661;28;20085;-82
2022/04/08 09:15:39;;;;;;;8.65;2.20;;;7.80;99.90;;;;;;5106811;28;20036;-83
2022/04/08 09:18:12;;;;;;;10.07;2.42;;;8.10;99.90;;;;;;5107129;28;20055;-83
2022/04/08 09:20:44;;;;;;;7.47;2.30;;;8.10;99.90;;;;;;5107822;28;20065;-83
2022/04/08 09:23:10;;;;;;;10.75;2.47;;;7.70;99.90;;;;;;5125809;28;20032;-83
2022/04/08 09:25:37;;;;;;;11.45;3.03;;;7.80;99.90;;;;;;5103047;28;20048;-83
2022/04/08 09:28:07;;;;;;;9.75;3.42;;;7.50;99.90;;;;;;5118219;28;20079;-83
2022/04/08 09:30:33;;;;;;;6.88;2.80;;;7.40;99.90;;;;;;5105116;28;20503;-83
2022/04/08 09:33:09;;;;;;;7.25;2.88;;;8.30;99.90;;;;;;5106114;28;20086;-83
2022/04/08 09:35:39;;;;;;;6.70;1.83;;;7.20;99.90;;;;;;5105910;28;20051;-83
2022/04/08 09:38:05;;;;;;;4.57;1.48;;;7.10;99.90;;;;;;5088343;28;20055;-83
2022/04/08 09:40:36;;;;;;;5.88;1.50;;;6.80;99.90;;;;;;5106007;28;20051;-83
2022/04/08 09:43:02;;;;;;;7.40;1.98;;;7.30;99.90;;;;;;5105512;28;20459;-83
2022/04/08 09:45:30;;;;;;;4.63;1.70;;;6.30;99.90;;;;;;5125474;28;20047;-82
2022/04/08 09:48:03;;;;;;;4.70;1.65;;;6.20;99.90;;;;;;5106134;28;20156;-83
2022/04/08 09:50:29;;;;;;;4.57;1.38;;;6.00;99.90;;;;;;5107120;28;20047;-82
2022/04/08 09:52:55;;;;;;;7.50;1.83;;;6.60;99.90;;;;;;5125113;28;20042;-82
2022/04/08 09:55:23;;;;;;;3.75;2.05;;;6.20;99.90;;;;;;5090201;28;20046;-83
2022/04/08 09:58:06;;;;;;;4.63;2.30;;;6.40;99.90;;;;;;5125270;28;20455;-82
2022/04/08 10:00:32;;;;;;;7.03;1.40;;;6.60;99.90;;;;;;5106179;28;20047;-82
2022/04/08 10:03:01;;;;;;;4.00;1.73;;;6.80;99.90;;;;;;5105912;28;20047;-83
2022/04/08 10:05:28;;;;;;;6.10;1.80;;;7.00;99.90;;;;;;5106180;28;20052;-82
2022/04/08 10:07:55;;;;;;;4.80;1.00;;;7.20;99.90;;;;;;5125270;28;20074;-83
2022/04/08 10:10:42;;;;;;;7.32;1.95;;;7.40;99.90;;;;;;5106319;28;20035;-83
2022/04/08 10:13:46;;;;;;;6.60;1.60;;;7.50;99.90;;;;;;5125112;28;20051;-83
2022/04/08 10:16:20;;;;;;;4.82;1.83;;;7.70;99.90;;;;;;5125131;28;20050;-82
2022/04/08 10:18:48;;;;;;;4.10;1.50;;;8.10;99.90;;;;;;5105188;28;20051;-83
2022/04/08 10:21:14;;;;;;;5.55;1.45;;;8.40;99.90;;;;;;5123981;28;20058;-83
2022/04/08 10:23:48;;;;;;;5.57;1.20;;;8.90;99.90;;;;;;5124205;28;20095;-83
2022/04/08 10:26:23;;;;;;;6.83;1.40;;;8.70;99.90;;;;;;5124025;28;20475;-83
2022/04/08 10:28:51;;;;;;;6.23;1.10;;;8.90;99.90;;;;;;5104683;28;20046;-83
2022/04/08 10:31:25;;;;;;;5.07;1.10;;;7.90;99.90;;;;;;5105679;28;20077;-83
2022/04/08 10:33:55;;;;;;;3.70;1.02;;;8.80;99.90;;;;;;5106066;28;20433;-83
2022/04/08 10:36:43;;;;;;;3.92;1.10;;;8.90;99.90;;;;;;5105060;28;20067;-83
2022/04/08 10:39:12;;;;;;;5.68;1.30;;;8.90;99.90;;;;;;5122800;28;20048;-82
2022/04/08 10:42:06;;;;;;;2.83;1.20;;;9.10;99.90;;;;;;5104479;28;20126;-83
2022/04/08 10:44:37;;;;;;;7.25;1.70;;;9.20;99.90;;;;;;5100486;28;20055;-83
2022/04/08 10:47:14;;;;;;;4.63;0.90;;;10.10;99.90;;;;;;5121339;28;20047;-83
2022/04/08 10:50:03;;;;;;;2.42;0.88;;;9.50;99.90;;;;;;5121393;28;20055;-83
2022/04/08 10:52:31;;;;;;;4.20;1.20;;;9.60;99.90;;;;;;5120210;28;20131;-83
2022/04/08 10:55:11;;;;;;;6.00;1.20;;;9.80;99.90;;;;;;5121639;28;20387;-83
2022/04/08 10:57:42;;;;;;;4.68;1.30;;;10.30;99.90;;;;;;5124096;28;20395;-83
2022/04/08 11:00:11;;;;;;;4.80;1.35;;;10.00;99.90;;;;;;5105060;28;20044;-83
2022/04/08 11:02:39;;;;;;;8.70;1.50;;;9.90;99.90;;;;;;5123406;28;20047;-83
2022/04/08 11:05:09;;;;;;;5.35;1.23;;;9.80;99.90;;;;;;5102817;28;20043;-83
2022/04/08 11:07:42;;;;;;;7.40;1.55;;;10.30;99.90;;;;;;5123514;28;20409;-83
2022/04/08 11:10:16;;;;;;;6.53;1.30;;;10.10;99.90;;;;;;5087114;28;20390;-83
2022/04/08 11:12:53;;;;;;;4.68;1.25;;;10.50;99.90;;;;;;5103162;28;20105;-83
2022/04/08 11:15:24;;;;;;;5.05;1.45;;;10.40;99.90;;;;;;5102605;28;20394;-83
2022/04/08 11:17:50;;;;;;;4.68;1.33;;;10.10;99.90;;;;;;5119894;28;20056;-83
2022/04/08 11:20:18;;;;;;;5.85;1.38;;;10.60;99.90;;;;;;5101442;28;20452;-83
2022/04/08 11:22:47;;;;;;;6.18;1.75;;;9.60;99.90;;;;;;5102063;28;20123;-83
2022/04/08 11:25:30;;;;;;;6.45;1.00;;;10.10;99.90;;;;;;5101846;28;20078;-83
2022/04/08 11:28:07;;;;;;;6.25;1.25;;;9.90;99.90;;;;;;5085145;28;20039;-83
2022/04/08 11:30:35;;;;;;;4.03;1.05;;;10.20;99.90;;;;;;5119554;28;20044;-83
2022/04/08 11:33:15;;;;;;;3.28;0.90;;;10.40;99.90;;;;;;5119670;28;20031;-83
2022/04/08 11:35:42;;;;;;;2.42;0.80;;;10.40;99.90;;;;;;5119299;28;20047;-83
2022/04/08 11:38:20;;;;;;;6.20;1.40;;;10.90;99.90;;;;;;5121456;28;20044;-83
2022/04/08 11:40:46;;;;;;;6.05;1.30;;;10.00;99.90;;;;;;5113086;28;20055;-83
2022/04/08 11:43:13;;;;;;;4.65;1.05;;;10.20;99.90;;;;;;5102915;28;20047;-83
2022/04/08 11:45:39;;;;;;;4.00;0.95;;;10.10;99.90;;;;;;5083086;28;20083;-83
2022/04/08 11:48:13;;;;;;;6.70;1.20;;;10.00;99.90;;;;;;5101239;28;20048;-83
2022/04/08 11:50:40;;;;;;;4.38;1.10;;;10.20;99.90;;;;;;5101874;28;20506;-83
2022/04/08 11:53:22;;;;;;;7.18;1.23;;;10.50;99.90;;;;;;5099574;28;20122;-83
2022/04/08 11:56:00;;;;;;;3.78;0.90;;;10.10;99.90;;;;;;5100297;28;20040;-83
2022/04/08 11:58:27;;;;;;;3.17;0.90;;;9.80;99.90;;;;;;5101904;28;20146;-84
2022/04/08 12:00:53;;;;;;;3.78;0.90;;;9.90;99.90;;;;;;5101053;28;20044;-83
2022/04/08 12:03:22;;;;;;;4.35;1.00;;;9.80;99.90;;;;;;5102311;28;20261;-83
2022/04/08 12:05:49;;;;;;;4.22;0.90;;;9.10;99.90;;;;;;5101887;28;20039;-83
2022/04/08 12:08:16;;;;;;;5.35;1.00;;;9.50;99.90;;;;;;5084870;28;20050;-83
2022/04/08 12:10:42;;;;;;;4.78;1.05;;;9.10;99.90;;;;;;5085057;28;20047;-83
2022/04/08 12:13:22;;;;;;;4.20;1.02;;;8.70;99.90;;;;;;5101569;28;20130;-83
2022/04/08 12:15:50;;;;;;;3.90;0.90;;;8.80;99.90;;;;;;5101565;28;20510;-83
2022/04/08 12:18:26;;;;;;;5.07;1.10;;;8.90;99.90;;;;;;5121328;28;20055;-83
2022/04/08 12:21:03;;;;;;;4.03;0.95;;;7.90;99.90;;;;;;5120409;28;20047;-84
2022/04/08 12:23:29;;;;;;;2.63;0.80;;;8.40;99.90;;;;;;5086472;28;20055;-83
2022/04/08 12:25:57;;;;;;;3.67;0.90;;;7.60;99.90;;;;;;5086804;28;20043;-83
2022/04/08 12:28:31;;;;;;;5.32;1.52;;;8.40;99.90;;;;;;5121396;28;20044;-83
2022/04/08 12:30:57;;;;;;;4.55;1.00;;;8.40;99.90;;;;;;5120107;28;20479;-83
2022/04/08 12:33:23;;;;;;;4.32;1.20;;;9.30;99.90;;;;;;5083705;28;20050;-83
2022/04/08 12:35:48;;;;;;;5.07;1.20;;;9.20;99.90;;;;;;5100010;28;20118;-83
2022/04/08 12:38:24;;;;;;;6.43;1.30;;;8.90;99.90;;;;;;5116796;28;20108;-83
2022/04/08 12:40:50;;;;;;;5.63;1.20;;;10.00;99.90;;;;;;5120006;28;20114;-83
2022/04/08 12:43:15;;;;;;;6.57;1.15;;;10.30;99.90;;;;;;5099067;28;20078;-83
2022/04/08 12:45:42;;;;;;;4.53;1.27;;;10.70;99.90;;;;;;5117983;28;20075;-83
2022/04/08 12:48:08;;;;;;;4.68;1.35;;;11.20;99.90;;;;;;5100199;28;20044;-83
2022/04/08 12:50:35;;;;;;;6.15;1.20;;;10.80;99.90;;;;;;5101513;28;20395;-83
2022/04/08 12:53:01;;;;;;;3.47;1.00;;;10.70;99.90;;;;;;5099388;28;20044;-83
2022/04/08 12:55:27;;;;;;;6.07;1.10;;;10.90;99.90;;;;;;5118989;28;20051;-83
2022/04/08 12:57:54;;;;;;;4.32;0.82;;;11.00;99.90;;;;;;5117836;28;20093;-83